createdAt,value
2023-01-24T00:01:12.009Z,4.20
2023-01-24T00:03:38.982Z,4.20
2023-01-24T00:06:08.393Z,4.20
2023-01-24T00:08:35.386Z,4.20
2023-01-24T00:11:06.644Z,4.20
2023-01-24T00:13:35.332Z,4.10
2023-01-24T00:16:07.484Z,4.20
2023-01-24T00:18:35.933Z,4.20
2023-01-24T00:21:13.184Z,4.30
2023-01-24T00:23:43.190Z,4.20
2023-01-24T00:26:10.708Z,4.20
2023-01-24T00:28:39.013Z,4.10
2023-01-24T00:31:07.202Z,4.10
2023-01-24T00:33:37.873Z,4.20
2023-01-24T00:36:06.343Z,4.10
2023-01-24T00:38:33.278Z,4.10
2023-01-24T00:41:00.335Z,4.20
2023-01-24T00:43:29.855Z,4.10
2023-01-24T00:45:57.391Z,4.10
2023-01-24T00:48:24.883Z,4.00
2023-01-24T00:50:53.883Z,4.10
2023-01-24T00:53:21.130Z,4.10
2023-01-24T00:55:49.111Z,4.10
2023-01-24T00:58:19.262Z,4.10
2023-01-24T01:00:47.649Z,4.20
2023-01-24T01:03:20.297Z,4.10
2023-01-24T01:05:48.492Z,4.10
2023-01-24T01:08:15.509Z,4.10
2023-01-24T01:10:42.586Z,4.10
2023-01-24T01:13:12.996Z,4.10
2023-01-24T01:15:40.527Z,4.20
2023-01-24T01:18:08.484Z,4.30
2023-01-24T01:20:35.903Z,4.30
2023-01-24T01:23:03.505Z,4.20
2023-01-24T01:25:30.730Z,4.30
2023-01-24T01:27:59.606Z,4.30
2023-01-24T01:30:27.467Z,4.20
2023-01-24T01:32:54.358Z,4.20
2023-01-24T01:35:22.609Z,4.30
2023-01-24T01:37:49.758Z,4.20
2023-01-24T01:40:19.314Z,4.20
2023-01-24T01:42:55.508Z,4.20
2023-01-24T01:45:43.268Z,4.20
2023-01-24T01:48:42.440Z,4.20
2023-01-24T01:51:23.518Z,4.20
2023-01-24T01:54:00.543Z,4.20
2023-01-24T01:56:43.118Z,4.30
2023-01-24T01:59:21.224Z,4.40
2023-01-24T02:01:49.586Z,4.40
2023-01-24T02:04:23.568Z,4.30
2023-01-24T02:07:11.934Z,4.30
2023-01-24T02:09:42.859Z,4.40
2023-01-24T02:12:34.291Z,4.30
2023-01-24T02:15:26.789Z,4.30
2023-01-24T02:17:55.211Z,4.30
2023-01-24T02:20:38.858Z,4.10
2023-01-24T02:23:20.411Z,4.10
2023-01-24T02:25:59.121Z,4.10
2023-01-24T02:28:27.615Z,4.20
2023-01-24T02:30:58.358Z,4.10
2023-01-24T02:33:25.554Z,4.00
2023-01-24T02:36:15.856Z,4.10
2023-01-24T02:38:47.477Z,4.10
2023-01-24T02:41:18.994Z,4.10
2023-01-24T02:43:49.739Z,4.10
2023-01-24T02:46:18.701Z,4.10
2023-01-24T02:48:46.861Z,4.00
2023-01-24T02:51:32.271Z,4.00
2023-01-24T02:53:59.158Z,3.90
2023-01-24T02:56:45.655Z,4.00
2023-01-24T02:59:12.670Z,4.00
2023-01-24T03:01:39.678Z,4.00
2023-01-24T03:04:06.585Z,4.00
2023-01-24T03:06:35.076Z,4.00
2023-01-24T03:09:19.198Z,4.00
2023-01-24T03:11:50.068Z,4.00
2023-01-24T03:14:36.572Z,4.00
2023-01-24T03:17:22.166Z,4.10
2023-01-24T03:20:07.900Z,4.00
2023-01-24T03:22:54.543Z,4.00
2023-01-24T03:25:40.276Z,4.00
2023-01-24T03:28:28.130Z,4.00
2023-01-24T03:31:14.735Z,4.10
2023-01-24T03:34:00.054Z,4.10
2023-01-24T03:36:32.989Z,4.20
2023-01-24T03:39:37.071Z,4.00
2023-01-24T03:42:04.481Z,4.10
2023-01-24T03:44:32.961Z,3.90
2023-01-24T03:47:00.553Z,4.00
2023-01-24T03:49:48.763Z,4.00
2023-01-24T03:52:27.618Z,3.90
2023-01-24T03:54:55.222Z,4.00
2023-01-24T03:57:22.933Z,4.00
2023-01-24T03:59:51.643Z,4.10
2023-01-24T04:02:19.511Z,4.10
2023-01-24T04:05:05.658Z,4.30
2023-01-24T04:07:33.108Z,4.20
2023-01-24T04:10:03.824Z,4.10
2023-01-24T04:12:38.491Z,4.20
2023-01-24T04:15:06.029Z,4.10
2023-01-24T04:17:35.003Z,4.00
2023-01-24T04:20:04.647Z,4.10
2023-01-24T04:22:31.509Z,4.10
2023-01-24T04:25:00.816Z,4.10
2023-01-24T04:27:32.001Z,4.10
2023-01-24T04:30:12.188Z,4.00
2023-01-24T04:32:41.361Z,4.20
2023-01-24T04:35:18.433Z,4.10
2023-01-24T04:37:54.164Z,4.10
2023-01-24T04:40:40.226Z,4.00
2023-01-24T04:43:07.734Z,4.10
2023-01-24T04:45:35.313Z,4.10
2023-01-24T04:48:04.270Z,4.00
2023-01-24T04:50:31.808Z,4.10
2023-01-24T04:52:59.240Z,4.00
2023-01-24T04:55:26.291Z,4.00
2023-01-24T04:57:57.006Z,4.20
2023-01-24T05:00:25.538Z,4.20
2023-01-24T05:02:52.848Z,4.10
2023-01-24T05:05:22.126Z,4.00
2023-01-24T05:07:49.958Z,4.00
2023-01-24T05:10:22.209Z,4.00
2023-01-24T05:12:51.866Z,3.90
2023-01-24T05:15:24.272Z,4.00
2023-01-24T05:17:54.868Z,4.00
2023-01-24T05:20:25.009Z,4.10
2023-01-24T05:22:52.579Z,4.10
2023-01-24T05:25:28.505Z,4.10
2023-01-24T05:27:58.926Z,4.10
2023-01-24T05:30:27.921Z,4.10
2023-01-24T05:33:00.300Z,4.20
2023-01-24T05:35:27.992Z,4.20
2023-01-24T05:37:57.451Z,4.10
2023-01-24T05:40:25.572Z,4.20
2023-01-24T05:42:53.507Z,4.30
2023-01-24T05:45:22.718Z,4.30
2023-01-24T05:47:53.335Z,4.20
2023-01-24T05:50:20.152Z,4.10
2023-01-24T05:53:07.954Z,4.00
2023-01-24T05:55:36.126Z,4.10
2023-01-24T05:58:02.969Z,4.10
2023-01-24T06:00:55.161Z,4.00
2023-01-24T06:03:32.336Z,3.90
2023-01-24T06:05:59.369Z,4.00
2023-01-24T06:08:29.537Z,3.90
2023-01-24T06:11:22.056Z,4.00
2023-01-24T06:13:58.634Z,4.00
2023-01-24T06:16:45.435Z,4.00
2023-01-24T06:19:16.379Z,4.10
2023-01-24T06:22:18.672Z,4.10
2023-01-24T06:24:47.159Z,4.10
2023-01-24T06:27:26.624Z,4.20
2023-01-24T06:29:54.728Z,4.20
2023-01-24T06:32:35.810Z,4.00
2023-01-24T06:35:41.429Z,4.00
2023-01-24T06:38:21.984Z,4.00
2023-01-24T06:40:57.586Z,4.10
2023-01-24T06:43:26.380Z,4.00
2023-01-24T06:45:53.199Z,4.10
2023-01-24T06:48:21.258Z,4.10
2023-01-24T06:50:48.814Z,4.00
2023-01-24T06:53:15.675Z,4.00
2023-01-24T06:55:49.783Z,3.90
2023-01-24T06:58:16.763Z,3.90
2023-01-24T07:00:47.384Z,4.00
2023-01-24T07:03:14.292Z,3.90
2023-01-24T07:05:44.777Z,4.00
2023-01-24T07:08:14.189Z,3.90
2023-01-24T07:10:45.626Z,4.00
2023-01-24T07:13:12.678Z,4.10
2023-01-24T07:15:41.775Z,4.00
2023-01-24T07:18:13.909Z,4.00
2023-01-24T07:20:42.984Z,3.90
2023-01-24T07:23:26.475Z,3.90
2023-01-24T07:25:56.258Z,3.90
2023-01-24T07:28:24.275Z,4.00
2023-01-24T07:30:56.465Z,4.10
2023-01-24T07:33:24.947Z,4.00
2023-01-24T07:35:52.941Z,3.90
2023-01-24T07:38:34.337Z,3.90
2023-01-24T07:41:10.325Z,3.90
2023-01-24T07:43:41.774Z,3.90
2023-01-24T07:46:08.657Z,4.00
2023-01-24T07:48:36.257Z,4.00
2023-01-24T07:51:04.804Z,4.00
2023-01-24T07:53:33.662Z,4.00
2023-01-24T07:56:02.786Z,3.90
2023-01-24T07:58:32.334Z,4.00
2023-01-24T08:00:59.542Z,3.80
2023-01-24T08:03:29.081Z,3.80
2023-01-24T08:05:56.181Z,3.90
2023-01-24T08:08:27.043Z,3.90
2023-01-24T08:10:55.329Z,3.90
2023-01-24T08:13:23.136Z,4.00
2023-01-24T08:15:52.104Z,4.10
2023-01-24T08:18:20.464Z,4.10
2023-01-24T08:20:47.451Z,4.00
2023-01-24T08:23:15.581Z,3.90
2023-01-24T08:25:45.850Z,3.90
2023-01-24T08:28:13.024Z,3.70
2023-01-24T08:30:42.259Z,3.70
2023-01-24T08:33:12.906Z,3.70
2023-01-24T08:35:41.161Z,3.60
2023-01-24T08:38:09.547Z,3.60
2023-01-24T08:40:49.051Z,3.70
2023-01-24T08:43:19.835Z,3.80
2023-01-24T08:45:48.399Z,3.90
2023-01-24T08:48:15.249Z,4.00
2023-01-24T08:50:44.219Z,3.90
2023-01-24T08:53:12.169Z,3.80
2023-01-24T08:55:40.045Z,3.80
2023-01-24T08:58:08.916Z,3.90
2023-01-24T09:00:36.027Z,3.90
2023-01-24T09:03:05.208Z,4.00
2023-01-24T09:05:32.264Z,4.00
2023-01-24T09:08:00.087Z,4.20
2023-01-24T09:10:27.366Z,4.00
2023-01-24T09:12:54.925Z,4.00
2023-01-24T09:15:22.274Z,4.00
2023-01-24T09:17:50.672Z,4.10
2023-01-24T09:20:18.061Z,4.10
2023-01-24T09:22:45.001Z,4.00
2023-01-24T09:25:11.973Z,4.10
2023-01-24T09:27:41.596Z,4.00
2023-01-24T09:30:10.154Z,4.10
2023-01-24T09:32:37.544Z,4.10
2023-01-24T09:35:04.896Z,4.20
2023-01-24T09:37:32.202Z,4.30
2023-01-24T09:40:00.747Z,4.30
2023-01-24T09:42:46.832Z,4.30
2023-01-24T09:45:14.025Z,4.20
2023-01-24T09:47:52.603Z,4.20
2023-01-24T09:50:29.685Z,4.10
2023-01-24T09:53:00.107Z,4.10
2023-01-24T09:55:35.846Z,4.10
2023-01-24T09:58:02.751Z,4.20
2023-01-24T10:00:33.031Z,4.20
2023-01-24T10:03:02.028Z,4.30
2023-01-24T10:05:47.541Z,4.20
2023-01-24T10:08:26.821Z,4.30
2023-01-24T10:11:15.537Z,4.30
2023-01-24T10:13:54.446Z,4.20
2023-01-24T10:16:52.710Z,4.30
2023-01-24T10:19:27.935Z,4.30
2023-01-24T10:22:30.136Z,4.30
2023-01-24T10:25:16.089Z,4.30
2023-01-24T10:27:58.719Z,4.30
2023-01-24T10:30:44.528Z,4.20
2023-01-24T10:33:20.320Z,4.20
2023-01-24T10:36:00.990Z,4.10
2023-01-24T10:38:29.296Z,4.00
2023-01-24T10:41:23.286Z,4.00
2023-01-24T10:44:00.649Z,4.10
2023-01-24T10:46:58.982Z,4.10
2023-01-24T10:49:29.614Z,4.10
2023-01-24T10:52:23.216Z,4.20
2023-01-24T10:54:59.204Z,4.20
2023-01-24T10:57:54.992Z,4.30
2023-01-24T11:00:35.922Z,4.30
2023-01-24T11:03:23.770Z,4.20
2023-01-24T11:05:54.329Z,4.30
2023-01-24T11:08:27.411Z,4.20
2023-01-24T11:10:59.719Z,4.40
2023-01-24T11:13:36.592Z,4.40
2023-01-24T11:16:18.573Z,4.40
2023-01-24T11:18:59.672Z,4.50
2023-01-24T11:21:27.981Z,4.60
2023-01-24T11:24:08.210Z,4.60
2023-01-24T11:26:56.140Z,4.70
2023-01-24T11:29:27.356Z,4.60
2023-01-24T11:31:58.310Z,4.10
2023-01-24T11:34:44.293Z,4.10
2023-01-24T11:37:37.334Z,3.90
2023-01-24T11:40:09.950Z,3.80
2023-01-24T11:43:02.679Z,3.80
2023-01-24T11:46:05.491Z,3.60
2023-01-24T11:48:53.006Z,3.80
2023-01-24T11:51:25.906Z,4.10
2023-01-24T11:54:02.019Z,4.30
2023-01-24T11:57:14.189Z,4.50
2023-01-24T12:00:00.662Z,4.40
2023-01-24T12:02:47.138Z,4.10
2023-01-24T12:05:36.123Z,4.20
2023-01-24T12:08:24.158Z,4.30
2023-01-24T12:11:34.777Z,4.60
2023-01-24T12:14:08.115Z,4.60
2023-01-24T12:16:34.997Z,4.70
2023-01-24T12:19:24.422Z,4.60
2023-01-24T12:22:01.240Z,4.60
2023-01-24T12:24:32.607Z,4.50
2023-01-24T12:27:07.240Z,4.60
2023-01-24T12:29:50.531Z,4.60
2023-01-24T12:32:33.123Z,4.60
2023-01-24T12:35:23.822Z,4.60
2023-01-24T12:38:14.165Z,4.60
2023-01-24T12:40:50.456Z,4.60
2023-01-24T12:43:41.477Z,4.40
2023-01-24T12:46:27.633Z,4.40
2023-01-24T12:49:01.950Z,4.40
2023-01-24T12:51:37.995Z,4.50
2023-01-24T12:54:20.868Z,4.40
2023-01-24T12:56:52.201Z,4.50
2023-01-24T12:59:31.868Z,4.50
2023-01-24T13:02:32.859Z,4.50
2023-01-24T13:05:28.178Z,4.60
2023-01-24T13:07:59.156Z,4.70
2023-01-24T13:10:54.785Z,4.90
2023-01-24T13:13:38.879Z,4.80
2023-01-24T13:16:15.855Z,4.70
2023-01-24T13:19:06.912Z,4.70
2023-01-24T13:22:11.455Z,4.80
2023-01-24T13:25:11.187Z,4.80
2023-01-24T13:28:07.018Z,4.50
2023-01-24T13:30:45.403Z,4.70
2023-01-24T13:33:18.055Z,4.40
2023-01-24T13:35:56.321Z,4.50
2023-01-24T13:38:26.779Z,4.60
2023-01-24T13:41:05.111Z,4.50
2023-01-24T13:43:59.963Z,4.60
2023-01-24T13:46:45.778Z,4.60
2023-01-24T13:49:30.692Z,4.40
2023-01-24T13:51:59.042Z,4.40
2023-01-24T13:54:42.911Z,4.40
2023-01-24T13:57:21.790Z,4.30
2023-01-24T14:00:29.846Z,4.30
2023-01-24T14:03:14.437Z,4.40
2023-01-24T14:06:06.525Z,4.20
2023-01-24T14:08:40.737Z,3.90
2023-01-24T14:11:08.518Z,4.00
2023-01-24T14:13:56.764Z,3.90
2023-01-24T14:16:28.552Z,4.10
2023-01-24T14:19:06.873Z,4.00
2023-01-24T14:22:09.412Z,3.70
2023-01-24T14:25:08.655Z,3.50
2023-01-24T14:27:39.170Z,3.40
2023-01-24T14:30:13.358Z,3.30
2023-01-24T14:32:52.170Z,3.30
2023-01-24T14:35:29.205Z,3.30
2023-01-24T14:38:20.684Z,3.50
2023-01-24T14:40:52.959Z,3.60
2023-01-24T14:43:22.780Z,3.40
2023-01-24T14:45:53.114Z,3.60
2023-01-24T14:48:25.757Z,3.80
2023-01-24T14:51:07.987Z,3.90
2023-01-24T14:53:35.814Z,4.00
2023-01-24T14:56:13.229Z,4.20
2023-01-24T14:58:41.619Z,4.20
2023-01-24T15:01:41.198Z,4.30
2023-01-24T15:04:21.704Z,4.40
2023-01-24T15:07:16.301Z,4.40
2023-01-24T15:09:45.548Z,4.50
2023-01-24T15:12:28.518Z,4.60
2023-01-24T15:14:58.845Z,4.60
2023-01-24T15:17:28.793Z,4.50
2023-01-24T15:20:09.712Z,4.40
2023-01-24T15:22:41.116Z,4.40
2023-01-24T15:25:42.110Z,4.40
2023-01-24T15:28:32.000Z,4.40
2023-01-24T15:31:01.567Z,4.30
2023-01-24T15:33:44.989Z,4.10
2023-01-24T15:36:33.469Z,4.20
2023-01-24T15:39:02.453Z,4.20
2023-01-24T15:41:57.956Z,4.20
2023-01-24T15:44:24.924Z,4.20
2023-01-24T15:47:17.390Z,4.00
2023-01-24T15:50:21.776Z,3.80
2023-01-24T15:53:12.301Z,3.80
2023-01-24T15:55:39.545Z,3.90
2023-01-24T15:58:09.838Z,3.90
2023-01-24T16:00:39.207Z,4.00
2023-01-24T16:03:07.205Z,4.00
2023-01-24T16:05:34.382Z,4.10
2023-01-24T16:08:02.478Z,4.10
2023-01-24T16:10:29.388Z,4.10
2023-01-24T16:12:56.452Z,4.10
2023-01-24T16:15:24.383Z,4.10
2023-01-24T16:17:52.345Z,4.10
2023-01-24T16:20:27.742Z,4.00
2023-01-24T16:22:55.828Z,4.00
2023-01-24T16:25:24.352Z,4.00
2023-01-24T16:27:52.409Z,3.90
2023-01-24T16:30:26.297Z,3.90
2023-01-24T16:32:54.292Z,3.90
2023-01-24T16:35:23.265Z,3.90
2023-01-24T16:37:50.551Z,4.00
2023-01-24T16:40:18.936Z,4.10
2023-01-24T16:42:49.018Z,4.00
2023-01-24T16:45:19.301Z,3.90
2023-01-24T16:47:48.720Z,4.00
2023-01-24T16:50:17.572Z,4.00
2023-01-24T16:52:44.922Z,4.00
2023-01-24T16:55:14.567Z,4.10
2023-01-24T16:57:43.053Z,4.00
2023-01-24T17:00:14.196Z,4.00
2023-01-24T17:02:43.002Z,3.90
2023-01-24T17:05:10.865Z,3.80
2023-01-24T17:07:40.233Z,3.50
2023-01-24T17:10:08.335Z,3.50
2023-01-24T17:12:37.605Z,3.40
2023-01-24T17:15:05.148Z,3.50
2023-01-24T17:17:32.525Z,3.60
2023-01-24T17:20:02.512Z,3.60
2023-01-24T17:22:30.321Z,3.70
2023-01-24T17:25:00.323Z,3.80
2023-01-24T17:27:31.875Z,3.80
2023-01-24T17:29:58.889Z,3.50
2023-01-24T17:32:26.866Z,3.70
2023-01-24T17:34:54.759Z,3.70
2023-01-24T17:37:22.672Z,3.70
2023-01-24T17:39:50.452Z,3.90
2023-01-24T17:42:21.160Z,3.80
2023-01-24T17:44:48.405Z,3.90
2023-01-24T17:47:15.908Z,3.80
2023-01-24T17:49:42.865Z,3.80
2023-01-24T17:52:09.879Z,3.80
2023-01-24T17:54:36.839Z,3.30
2023-01-24T17:57:03.925Z,3.00
2023-01-24T17:59:31.038Z,3.20
2023-01-24T18:01:58.024Z,3.10
2023-01-24T18:04:27.050Z,3.30
2023-01-24T18:06:57.716Z,3.40
2023-01-24T18:09:26.888Z,3.40
2023-01-24T18:11:53.899Z,3.50
2023-01-24T18:14:21.289Z,3.50
2023-01-24T18:16:51.914Z,3.60
2023-01-24T18:19:18.913Z,3.70
2023-01-24T18:21:45.846Z,3.70
2023-01-24T18:24:14.039Z,3.80
2023-01-24T18:26:41.026Z,3.80
2023-01-24T18:29:08.036Z,3.90
2023-01-24T18:31:35.239Z,3.90
2023-01-24T18:34:06.135Z,3.90
2023-01-24T18:36:36.062Z,3.90
2023-01-24T18:39:08.053Z,3.80
2023-01-24T18:41:40.493Z,3.80
2023-01-24T18:44:11.458Z,3.90
2023-01-24T18:47:05.055Z,3.90
2023-01-24T18:49:32.661Z,3.90
2023-01-24T18:52:00.775Z,3.90
2023-01-24T18:54:29.791Z,3.70
2023-01-24T18:56:57.658Z,3.60
2023-01-24T18:59:26.311Z,3.70
2023-01-24T19:01:53.352Z,3.80
2023-01-24T19:04:20.389Z,3.80
2023-01-24T19:06:48.697Z,3.60
2023-01-24T19:09:18.197Z,3.40
2023-01-24T19:11:46.866Z,3.40
2023-01-24T19:14:40.014Z,3.40
2023-01-24T19:17:09.070Z,3.20
2023-01-24T19:19:39.973Z,3.30
2023-01-24T19:22:10.067Z,3.30
2023-01-24T19:24:38.135Z,3.30
2023-01-24T19:27:09.080Z,3.20
2023-01-24T19:29:35.972Z,3.30
2023-01-24T19:32:06.679Z,3.20
2023-01-24T19:34:34.947Z,3.30
2023-01-24T19:37:01.935Z,3.30
2023-01-24T19:39:30.189Z,3.30
2023-01-24T19:41:58.164Z,3.30
2023-01-24T19:44:26.095Z,3.30
2023-01-24T19:46:53.139Z,3.40
2023-01-24T19:49:22.263Z,3.30
2023-01-24T19:51:50.827Z,3.20
2023-01-24T19:54:18.805Z,3.30
2023-01-24T19:56:46.149Z,3.40
2023-01-24T19:59:18.864Z,3.50
2023-01-24T20:01:45.811Z,3.40
2023-01-24T20:04:23.934Z,3.50
2023-01-24T20:06:54.808Z,3.50
2023-01-24T20:09:22.461Z,3.60
2023-01-24T20:11:52.404Z,3.50
2023-01-24T20:14:20.469Z,3.50
2023-01-24T20:16:47.462Z,3.60
2023-01-24T20:19:27.109Z,3.50
2023-01-24T20:21:55.614Z,3.50
2023-01-24T20:24:22.706Z,3.60
2023-01-24T20:26:52.798Z,3.60
2023-01-24T20:29:21.750Z,3.70
2023-01-24T20:31:49.756Z,3.70
2023-01-24T20:34:18.429Z,3.70
2023-01-24T20:36:49.956Z,3.70
2023-01-24T20:39:18.068Z,3.70
2023-01-24T20:41:46.592Z,3.70
2023-01-24T20:44:25.744Z,3.70
2023-01-24T20:47:00.905Z,3.70
2023-01-24T20:49:29.123Z,3.40
2023-01-24T20:51:59.928Z,3.30
2023-01-24T20:54:26.834Z,3.20
2023-01-24T20:56:58.139Z,3.30
2023-01-24T20:59:25.204Z,3.10
2023-01-24T21:01:53.647Z,3.10
2023-01-24T21:04:20.817Z,3.20
2023-01-24T21:06:50.565Z,3.10
2023-01-24T21:09:18.836Z,3.20
2023-01-24T21:11:52.339Z,3.30
2023-01-24T21:14:23.180Z,3.30
2023-01-24T21:16:57.039Z,3.30
2023-01-24T21:19:27.433Z,3.40
2023-01-24T21:21:56.795Z,3.30
2023-01-24T21:24:33.053Z,3.30
2023-01-24T21:27:04.070Z,3.30
2023-01-24T21:29:33.489Z,3.50
2023-01-24T21:32:01.188Z,3.40
2023-01-24T21:34:29.681Z,3.40
2023-01-24T21:37:00.252Z,3.40
2023-01-24T21:39:29.742Z,3.20
2023-01-24T21:42:02.910Z,3.20
2023-01-24T21:44:34.440Z,2.80
2023-01-24T21:47:03.886Z,2.60
2023-01-24T21:49:31.294Z,2.60
2023-01-24T21:52:02.338Z,2.70
2023-01-24T21:54:34.299Z,2.90
2023-01-24T21:57:33.510Z,2.90
2023-01-24T22:00:06.027Z,3.00
2023-01-24T22:02:45.673Z,3.10
2023-01-24T22:05:16.074Z,3.00
2023-01-24T22:07:46.304Z,2.70
2023-01-24T22:10:13.384Z,2.70
2023-01-24T22:12:40.401Z,2.80
2023-01-24T22:15:08.398Z,2.80
2023-01-24T22:17:36.171Z,2.90
2023-01-24T22:20:05.800Z,2.80
2023-01-24T22:22:54.553Z,2.80
2023-01-24T22:25:49.532Z,2.80
2023-01-24T22:28:22.556Z,2.70
2023-01-24T22:30:51.756Z,2.60
2023-01-24T22:33:19.917Z,2.60
2023-01-24T22:36:00.590Z,2.40
2023-01-24T22:38:28.236Z,2.30
2023-01-24T22:40:57.383Z,2.40
2023-01-24T22:43:28.107Z,2.50
2023-01-24T22:45:55.475Z,2.60
2023-01-24T22:48:22.680Z,2.40
2023-01-24T22:50:51.005Z,2.30
2023-01-24T22:53:21.326Z,2.30
2023-01-24T22:55:52.107Z,2.40
2023-01-24T22:58:22.470Z,2.30
2023-01-24T23:01:03.125Z,2.20
2023-01-24T23:03:32.646Z,2.40
2023-01-24T23:06:09.577Z,2.50
2023-01-24T23:08:36.969Z,2.40
2023-01-24T23:11:16.398Z,2.20
2023-01-24T23:14:05.540Z,2.30
2023-01-24T23:16:39.896Z,2.40
2023-01-24T23:19:54.933Z,2.50
2023-01-24T23:22:25.404Z,2.70
2023-01-24T23:24:53.738Z,3.00
2023-01-24T23:27:24.700Z,3.00
2023-01-24T23:29:58.945Z,2.90
2023-01-24T23:32:36.949Z,2.70
2023-01-24T23:35:05.259Z,2.60
2023-01-24T23:37:33.942Z,2.30
2023-01-24T23:40:02.419Z,2.50
2023-01-24T23:42:34.151Z,2.60
2023-01-24T23:45:05.603Z,2.60
2023-01-24T23:47:33.776Z,2.70
2023-01-24T23:50:03.209Z,2.50
2023-01-24T23:52:30.487Z,2.50
2023-01-24T23:54:57.499Z,2.50
2023-01-24T23:57:24.580Z,2.60
2023-01-24T23:59:52.740Z,2.60
